createdAt,value
2022-11-07T00:00:25.158Z,100330.46
2022-11-07T00:04:35.347Z,100325.27
2022-11-07T00:08:38.692Z,100323.33
2022-11-07T00:12:41.983Z,100316.01
2022-11-07T00:16:47.118Z,100319.31
2022-11-07T00:20:50.431Z,100319.35
2022-11-07T00:24:53.812Z,100322.79
2022-11-07T00:28:57.169Z,100325.54
2022-11-07T00:33:00.641Z,100324.15
2022-11-07T00:37:03.998Z,100322.53
2022-11-07T00:41:07.679Z,100320.49
2022-11-07T00:45:12.022Z,100314.41
2022-11-07T00:49:15.346Z,100314.02
2022-11-07T00:53:18.649Z,100311.77
2022-11-07T00:57:22.049Z,100307.11
2022-11-07T01:01:28.456Z,100302.27
2022-11-07T01:05:31.856Z,100302.30
2022-11-07T01:09:35.287Z,100299.39
2022-11-07T01:13:38.590Z,100295.07
2022-11-07T01:17:41.851Z,100286.35
2022-11-07T01:21:45.596Z,100285.42
2022-11-07T01:25:49.466Z,100279.84
2022-11-07T01:29:52.811Z,100274.54
2022-11-07T01:33:56.085Z,100270.98
2022-11-07T01:37:59.415Z,100266.88
2022-11-07T01:42:03.039Z,100252.59
2022-11-07T01:46:06.327Z,100246.59
2022-11-07T01:50:10.387Z,100239.15
2022-11-07T01:54:17.270Z,100236.11
2022-11-07T01:58:20.640Z,100236.30
2022-11-07T02:02:27.289Z,100237.97
2022-11-07T02:06:42.685Z,100232.40
2022-11-07T02:10:46.148Z,100232.92
2022-11-07T02:14:49.888Z,100229.37
2022-11-07T02:18:53.323Z,100227.92
2022-11-07T02:23:04.505Z,100225.69
2022-11-07T02:27:13.101Z,100221.13
2022-11-07T02:31:16.422Z,100217.23
2022-11-07T02:35:40.105Z,100216.48
2022-11-07T02:39:43.366Z,100216.17
2022-11-07T02:43:53.083Z,100216.79
2022-11-07T02:47:57.000Z,100214.20
2022-11-07T02:52:00.301Z,100207.52
2022-11-07T02:56:04.508Z,100210.52
2022-11-07T03:00:12.164Z,100200.81
2022-11-07T03:04:15.811Z,100196.05
2022-11-07T03:08:19.101Z,100195.40
2022-11-07T03:12:22.363Z,100189.92
2022-11-07T03:16:25.649Z,100189.81
2022-11-07T03:20:29.008Z,100185.75
2022-11-07T03:24:32.834Z,100190.63
2022-11-07T03:28:36.144Z,100184.13
2022-11-07T03:32:39.441Z,100185.96
2022-11-07T03:36:42.735Z,100175.80
2022-11-07T03:40:46.851Z,100180.77
2022-11-07T03:44:50.138Z,100178.24
2022-11-07T03:48:53.413Z,100174.39
2022-11-07T03:52:56.699Z,100164.89
2022-11-07T03:57:00.078Z,100165.19
2022-11-07T04:01:04.134Z,100160.86
2022-11-07T04:05:08.399Z,100152.94
2022-11-07T04:09:11.698Z,100152.30
2022-11-07T04:13:33.900Z,100146.63
2022-11-07T04:17:37.248Z,100142.56
2022-11-07T04:21:40.538Z,100133.99
2022-11-07T04:26:02.691Z,100136.08
2022-11-07T04:30:28.411Z,100133.22
2022-11-07T04:34:31.786Z,100129.52
2022-11-07T04:38:35.046Z,100125.98
2022-11-07T04:42:39.180Z,100128.40
2022-11-07T04:46:42.536Z,100133.32
2022-11-07T04:50:46.784Z,100130.60
2022-11-07T04:54:50.126Z,100131.63
2022-11-07T04:58:53.392Z,100133.55
2022-11-07T05:02:56.763Z,100137.30
2022-11-07T05:07:00.139Z,100128.23
2022-11-07T05:11:03.502Z,100129.92
2022-11-07T05:15:07.690Z,100134.90
2022-11-07T05:19:18.490Z,100133.13
2022-11-07T05:23:22.389Z,100133.35
2022-11-07T05:27:26.022Z,100129.64
2022-11-07T05:31:29.444Z,100131.23
2022-11-07T05:35:32.807Z,100124.23
2022-11-07T05:39:36.497Z,100124.51
2022-11-07T05:43:40.388Z,100125.02
2022-11-07T05:47:43.750Z,100120.49
2022-11-07T05:51:47.048Z,100118.38
2022-11-07T05:55:50.422Z,100115.31
2022-11-07T05:59:53.716Z,100118.42
2022-11-07T06:03:56.967Z,100111.58
2022-11-07T06:08:00.272Z,100109.94
2022-11-07T06:12:04.220Z,100107.61
2022-11-07T06:16:08.028Z,100105.55
2022-11-07T06:20:11.666Z,100109.41
2022-11-07T06:24:15.619Z,100111.70
2022-11-07T06:28:19.059Z,100117.85
2022-11-07T06:32:22.398Z,100112.49
2022-11-07T06:36:25.933Z,100111.58
2022-11-07T06:40:29.814Z,100114.84
2022-11-07T06:44:33.492Z,100118.75
2022-11-07T06:48:36.769Z,100120.89
2022-11-07T06:52:40.136Z,100126.92
2022-11-07T06:56:43.777Z,100130.13
2022-11-07T07:00:47.178Z,100126.30
2022-11-07T07:04:50.569Z,100125.61
2022-11-07T07:08:54.742Z,100130.73
2022-11-07T07:12:58.179Z,100132.98
2022-11-07T07:17:01.624Z,100138.33
2022-11-07T07:21:07.995Z,100134.69
2022-11-07T07:25:11.899Z,100132.48
2022-11-07T07:29:15.282Z,100129.55
2022-11-07T07:33:18.995Z,100128.09
2022-11-07T07:37:22.595Z,100131.53
2022-11-07T07:41:25.863Z,100125.23
2022-11-07T07:45:29.256Z,100123.62
2022-11-07T07:49:32.539Z,100123.70
2022-11-07T07:53:35.848Z,100124.25
2022-11-07T07:57:43.336Z,100119.53
2022-11-07T08:01:49.818Z,100116.70
2022-11-07T08:05:58.154Z,100105.78
2022-11-07T08:10:26.907Z,100111.17
2022-11-07T08:14:24.853Z,100117.91
2022-11-07T08:18:28.189Z,100111.69
2022-11-07T08:22:31.560Z,100115.83
2022-11-07T08:26:35.538Z,100111.08
2022-11-07T08:30:38.893Z,100116.87
2022-11-07T08:34:42.346Z,100118.39
2022-11-07T08:38:45.780Z,100120.75
2022-11-07T08:42:49.509Z,100121.84
2022-11-07T08:46:53.113Z,100121.83
2022-11-07T08:50:58.418Z,100127.61
2022-11-07T08:55:02.465Z,100125.27
2022-11-07T08:59:05.818Z,100124.64
2022-11-07T09:07:39.896Z,100127.93
2022-11-07T09:11:43.273Z,100131.16
2022-11-07T09:15:50.902Z,100133.98
2022-11-07T09:19:55.217Z,100139.15
2022-11-07T09:23:58.711Z,100137.03
2022-11-07T09:28:03.332Z,100128.81
2022-11-07T09:32:30.492Z,100122.48
2022-11-07T09:36:29.989Z,100112.15
2022-11-07T09:40:40.877Z,100101.63
2022-11-07T09:45:01.585Z,100108.83
2022-11-07T09:49:19.930Z,100102.61
2022-11-07T09:53:48.222Z,100093.86
2022-11-07T09:57:59.147Z,100084.17
2022-11-07T10:02:12.147Z,100084.56
2022-11-07T10:06:29.058Z,100080.19
2022-11-07T10:10:51.683Z,100078.18
2022-11-07T10:15:43.300Z,100067.20
2022-11-07T10:20:33.581Z,100060.08
2022-11-07T10:24:58.650Z,100058.06
2022-11-07T10:29:22.263Z,100055.45
2022-11-07T10:33:46.751Z,100048.67
2022-11-07T10:37:59.092Z,100050.33
2022-11-07T10:42:16.997Z,100050.02
2022-11-07T10:46:28.924Z,100047.20
2022-11-07T10:50:32.751Z,100045.58
2022-11-07T10:54:36.103Z,100040.71
2022-11-07T10:58:46.721Z,100034.30
2022-11-07T11:02:51.634Z,100024.71
2022-11-07T11:07:06.935Z,100020.41
2022-11-07T11:11:19.322Z,100021.22
2022-11-07T11:15:25.396Z,100015.04
2022-11-07T11:19:49.295Z,100022.13
2022-11-07T11:23:54.536Z,100021.31
2022-11-07T11:28:05.571Z,100022.70
2022-11-07T11:32:21.489Z,100028.33
2022-11-07T11:36:33.340Z,100027.00
2022-11-07T11:40:40.608Z,100028.73
2022-11-07T11:44:46.015Z,100030.13
2022-11-07T11:48:58.248Z,100029.38
2022-11-07T11:53:01.938Z,100023.76
2022-11-07T11:57:11.718Z,100022.03
2022-11-07T12:01:37.299Z,100027.57
2022-11-07T12:06:11.917Z,100026.59
2022-11-07T12:10:39.529Z,100023.57
2022-11-07T12:15:03.530Z,100019.07
2022-11-07T12:19:25.364Z,100014.74
2022-11-07T12:23:47.169Z,100013.08
2022-11-07T12:27:59.902Z,100020.72
2022-11-07T12:32:30.256Z,100016.86
2022-11-07T12:36:39.964Z,100021.80
2022-11-07T12:41:09.105Z,100023.29
2022-11-07T12:45:42.998Z,100029.07
2022-11-07T12:50:08.266Z,100033.14
2022-11-07T12:54:20.454Z,100024.40
2022-11-07T12:58:35.312Z,100028.02
2022-11-07T13:02:55.052Z,100038.42
2022-11-07T13:07:21.352Z,100041.75
2022-11-07T13:11:52.255Z,100051.19
2022-11-07T13:16:14.973Z,100053.57
2022-11-07T13:20:22.062Z,100056.73
2022-11-07T13:24:25.477Z,100054.79
2022-11-07T13:28:42.124Z,100051.38
2022-11-07T13:32:48.437Z,100053.08
2022-11-07T13:36:58.573Z,100054.41
2022-11-07T13:41:04.942Z,100052.36
2022-11-07T13:45:39.083Z,100054.77
2022-11-07T13:49:48.463Z,100051.64
2022-11-07T13:53:58.009Z,100057.63
2022-11-07T13:58:07.147Z,100061.16
2022-11-07T14:02:21.179Z,100061.48
2022-11-07T14:06:24.692Z,100068.88
2022-11-07T14:10:48.693Z,100073.48
2022-11-07T14:14:55.738Z,100072.25
2022-11-07T14:19:13.153Z,100071.58
2022-11-07T14:23:21.641Z,100065.98
2022-11-07T14:27:25.572Z,100069.77
2022-11-07T14:31:35.180Z,100071.83
2022-11-07T14:35:45.365Z,100082.83
2022-11-07T14:39:49.864Z,100083.57
2022-11-07T14:43:53.597Z,100086.24
2022-11-07T14:47:57.730Z,100086.90
2022-11-07T14:52:01.670Z,100093.27
2022-11-07T14:56:11.215Z,100095.90
2022-11-07T15:00:17.561Z,100099.84
2022-11-07T15:04:29.042Z,100101.65
2022-11-07T15:08:37.746Z,100099.92
2022-11-07T15:12:52.059Z,100102.98
2022-11-07T15:16:55.463Z,100103.44
2022-11-07T15:21:01.345Z,100107.45
2022-11-07T15:25:34.840Z,100111.25
2022-11-07T15:29:38.172Z,100115.63
2022-11-07T15:33:41.752Z,100114.05
2022-11-07T15:37:57.534Z,100111.65
2022-11-07T15:42:00.850Z,100116.80
2022-11-07T15:46:12.993Z,100113.70
2022-11-07T15:50:17.591Z,100120.66
2022-11-07T15:54:21.157Z,100121.73
2022-11-07T15:58:27.196Z,100122.58
2022-11-07T16:02:30.905Z,100125.59
2022-11-07T16:06:35.615Z,100127.98
2022-11-07T16:10:44.041Z,100129.33
2022-11-07T16:14:47.450Z,100135.90
2022-11-07T16:18:53.476Z,100133.55
2022-11-07T16:22:56.794Z,100137.66
2022-11-07T16:27:00.253Z,100141.09
2022-11-07T16:31:03.754Z,100144.80
2022-11-07T16:35:07.343Z,100149.98
2022-11-07T16:39:22.133Z,100154.02
2022-11-07T16:43:25.446Z,100153.77
2022-11-07T16:47:31.994Z,100157.08
2022-11-07T16:51:35.337Z,100162.84
2022-11-07T16:55:40.083Z,100167.04
2022-11-07T16:59:44.884Z,100168.73
2022-11-07T17:03:48.250Z,100175.33
2022-11-07T17:07:51.753Z,100177.31
2022-11-07T17:11:55.099Z,100178.26
2022-11-07T17:15:59.019Z,100183.02
2022-11-07T17:20:02.349Z,100184.33
2022-11-07T17:24:06.099Z,100186.08
2022-11-07T17:28:09.854Z,100190.50
2022-11-07T17:32:13.144Z,100191.79
2022-11-07T17:36:35.388Z,100189.98
2022-11-07T17:40:40.805Z,100192.58
2022-11-07T17:44:44.087Z,100196.98
2022-11-07T17:48:48.797Z,100197.52
2022-11-07T17:52:52.622Z,100191.36
2022-11-07T17:56:55.966Z,100185.97
2022-11-07T18:00:59.323Z,100186.90
2022-11-07T18:05:02.703Z,100193.55
2022-11-07T18:09:08.394Z,100194.30
2022-11-07T18:13:11.760Z,100192.52
2022-11-07T18:17:15.088Z,100188.69
2022-11-07T18:21:18.576Z,100184.89
2022-11-07T18:25:21.892Z,100191.98
2022-11-07T18:29:25.300Z,100194.04
2022-11-07T18:33:29.505Z,100189.79
2022-11-07T18:37:32.837Z,100193.91
2022-11-07T18:41:36.291Z,100191.59
2022-11-07T18:45:41.930Z,100193.67
2022-11-07T18:49:45.366Z,100195.34
2022-11-07T18:53:50.502Z,100197.24
2022-11-07T18:57:53.883Z,100198.60
2022-11-07T19:01:57.303Z,100205.38
2022-11-07T19:06:01.737Z,100210.96
2022-11-07T19:10:05.600Z,100219.80
2022-11-07T19:14:09.344Z,100222.67
2022-11-07T19:18:12.726Z,100223.35
2022-11-07T19:22:17.324Z,100225.94
2022-11-07T19:26:20.853Z,100232.95
2022-11-07T19:30:25.110Z,100230.84
2022-11-07T19:34:28.507Z,100232.21
2022-11-07T19:38:32.081Z,100238.65
2022-11-07T19:42:35.349Z,100248.31
2022-11-07T19:46:38.841Z,100254.56
2022-11-07T19:50:42.306Z,100252.38
2022-11-07T19:54:45.811Z,100249.41
2022-11-07T19:58:49.169Z,100248.89
2022-11-07T20:02:53.705Z,100247.90
2022-11-07T20:06:57.237Z,100247.48
2022-11-07T20:11:00.504Z,100253.91
2022-11-07T20:15:04.072Z,100257.56
2022-11-07T20:19:07.443Z,100260.11
2022-11-07T20:23:10.830Z,100261.99
2022-11-07T20:27:14.893Z,100257.41
2022-11-07T20:31:21.578Z,100256.14
2022-11-07T20:35:24.884Z,100252.17
2022-11-07T20:39:28.280Z,100250.64
2022-11-07T20:43:34.073Z,100250.55
2022-11-07T20:47:37.439Z,100251.34
2022-11-07T20:51:41.466Z,100250.90
2022-11-07T20:55:45.385Z,100252.90
2022-11-07T20:59:48.758Z,100253.20
2022-11-07T21:03:52.236Z,100254.76
2022-11-07T21:07:55.988Z,100254.65
2022-11-07T21:11:59.431Z,100255.85
2022-11-07T21:16:03.120Z,100259.14
2022-11-07T21:20:07.517Z,100258.05
2022-11-07T21:24:10.835Z,100257.27
2022-11-07T21:28:20.094Z,100256.00
2022-11-07T21:32:23.547Z,100255.01
2022-11-07T21:36:32.750Z,100260.42
2022-11-07T21:40:36.616Z,100255.06
2022-11-07T21:44:40.078Z,100253.31
2022-11-07T21:48:44.450Z,100259.80
2022-11-07T21:52:49.279Z,100261.80
2022-11-07T21:56:52.651Z,100263.18
2022-11-07T22:00:56.058Z,100264.85
2022-11-07T22:04:59.367Z,100264.95
2022-11-07T22:09:04.134Z,100265.46
2022-11-07T22:13:07.618Z,100265.61
2022-11-07T22:17:11.149Z,100265.14
2022-11-07T22:21:21.015Z,100270.10
2022-11-07T22:25:24.331Z,100270.98
2022-11-07T22:29:27.607Z,100270.48
2022-11-07T22:33:30.992Z,100267.96
2022-11-07T22:37:34.440Z,100269.53
2022-11-07T22:41:37.965Z,100269.95
2022-11-07T22:45:41.630Z,100268.58
2022-11-07T22:49:44.925Z,100269.83
2022-11-07T22:53:48.832Z,100265.77
2022-11-07T22:57:53.558Z,100265.20
2022-11-07T23:01:57.161Z,100266.80
2022-11-07T23:06:04.891Z,100267.31
2022-11-07T23:10:08.509Z,100264.36
2022-11-07T23:14:13.900Z,100267.05
2022-11-07T23:18:17.415Z,100265.71
2022-11-07T23:22:21.932Z,100268.34
2022-11-07T23:26:26.574Z,100266.40
2022-11-07T23:30:30.573Z,100270.55
2022-11-07T23:34:35.416Z,100272.91
2022-11-07T23:38:38.663Z,100269.76
2022-11-07T23:42:42.891Z,100264.23
2022-11-07T23:47:05.153Z,100274.80
2022-11-07T23:51:13.347Z,100280.25
2022-11-07T23:55:35.564Z,100278.09
2022-11-07T23:59:57.451Z,100275.66
